sensor_id;sensor_type;location;lat;lon;timestamp;P1;durP1;ratioP1;P2;durP2;ratioP2
56927;SDS011;60850;52.502;13.426;2022-11-22T00:00:21;21.23;;;9.68;;
56927;SDS011;60850;52.502;13.426;2022-11-22T00:03:09;26.52;;;10.13;;
56927;SDS011;60850;52.502;13.426;2022-11-22T00:05:36;28.23;;;11.30;;
56927;SDS011;60850;52.502;13.426;2022-11-22T00:08:05;21.50;;;9.43;;
56927;SDS011;60850;52.502;13.426;2022-11-22T00:10:32;28.23;;;10.90;;
56927;SDS011;60850;52.502;13.426;2022-11-22T00:12:59;26.15;;;10.45;;
56927;SDS011;60850;52.502;13.426;2022-11-22T00:15:27;22.55;;;10.55;;
56927;SDS011;60850;52.502;13.426;2022-11-22T00:17:54;19.55;;;9.13;;
56927;SDS011;60850;52.502;13.426;2022-11-22T00:20:21;21.65;;;9.27;;
56927;SDS011;60850;52.502;13.426;2022-11-22T00:22:48;23.10;;;9.30;;
56927;SDS011;60850;52.502;13.426;2022-11-22T00:25:16;24.67;;;11.27;;
56927;SDS011;60850;52.502;13.426;2022-11-22T00:27:43;23.33;;;9.98;;
56927;SDS011;60850;52.502;13.426;2022-11-22T00:30:10;23.65;;;10.02;;
56927;SDS011;60850;52.502;13.426;2022-11-22T00:32:37;24.65;;;10.77;;
56927;SDS011;60850;52.502;13.426;2022-11-22T00:35:05;18.92;;;9.55;;
56927;SDS011;60850;52.502;13.426;2022-11-22T00:37:32;22.98;;;9.40;;
56927;SDS011;60850;52.502;13.426;2022-11-22T00:39:59;23.83;;;10.65;;
56927;SDS011;60850;52.502;13.426;2022-11-22T00:42:28;20.30;;;8.75;;
56927;SDS011;60850;52.502;13.426;2022-11-22T00:44:55;22.45;;;9.68;;
56927;SDS011;60850;52.502;13.426;2022-11-22T00:47:22;22.88;;;9.57;;
56927;SDS011;60850;52.502;13.426;2022-11-22T00:49:49;24.83;;;11.18;;
56927;SDS011;60850;52.502;13.426;2022-11-22T00:52:16;24.20;;;11.50;;
56927;SDS011;60850;52.502;13.426;2022-11-22T00:54:43;20.10;;;9.07;;
56927;SDS011;60850;52.502;13.426;2022-11-22T00:57:12;24.40;;;9.88;;
56927;SDS011;60850;52.502;13.426;2022-11-22T00:59:40;29.30;;;12.15;;
56927;SDS011;60850;52.502;13.426;2022-11-22T01:02:07;24.10;;;10.68;;
56927;SDS011;60850;52.502;13.426;2022-11-22T01:04:34;24.70;;;10.15;;
56927;SDS011;60850;52.502;13.426;2022-11-22T01:07:01;26.70;;;11.32;;
56927;SDS011;60850;52.502;13.426;2022-11-22T01:09:28;24.58;;;9.82;;
56927;SDS011;60850;52.502;13.426;2022-11-22T01:11:55;18.85;;;8.13;;
56927;SDS011;60850;52.502;13.426;2022-11-22T01:14:22;23.50;;;10.10;;
56927;SDS011;60850;52.502;13.426;2022-11-22T01:16:51;23.73;;;9.85;;
56927;SDS011;60850;52.502;13.426;2022-11-22T01:19:17;23.27;;;10.27;;
56927;SDS011;60850;52.502;13.426;2022-11-22T01:21:44;22.55;;;9.95;;
56927;SDS011;60850;52.502;13.426;2022-11-22T01:24:11;23.30;;;9.43;;
56927;SDS011;60850;52.502;13.426;2022-11-22T01:26:38;32.83;;;12.38;;
56927;SDS011;60850;52.502;13.426;2022-11-22T01:29:05;18.98;;;8.93;;
56927;SDS011;60850;52.502;13.426;2022-11-22T01:31:32;25.17;;;10.75;;
56927;SDS011;60850;52.502;13.426;2022-11-22T01:34:03;25.55;;;10.52;;
56927;SDS011;60850;52.502;13.426;2022-11-22T01:36:31;25.65;;;11.00;;
56927;SDS011;60850;52.502;13.426;2022-11-22T01:38:58;22.17;;;9.68;;
56927;SDS011;60850;52.502;13.426;2022-11-22T01:41:25;20.85;;;9.13;;
56927;SDS011;60850;52.502;13.426;2022-11-22T01:43:52;23.10;;;9.60;;
56927;SDS011;60850;52.502;13.426;2022-11-22T01:46:22;23.23;;;10.45;;
56927;SDS011;60850;52.502;13.426;2022-11-22T01:48:55;24.35;;;9.73;;
56927;SDS011;60850;52.502;13.426;2022-11-22T01:51:31;28.67;;;9.73;;
56927;SDS011;60850;52.502;13.426;2022-11-22T01:54:03;21.92;;;9.63;;
56927;SDS011;60850;52.502;13.426;2022-11-22T01:56:33;21.85;;;10.13;;
56927;SDS011;60850;52.502;13.426;2022-11-22T01:59:02;25.20;;;9.88;;
56927;SDS011;60850;52.502;13.426;2022-11-22T02:01:33;23.38;;;9.65;;
56927;SDS011;60850;52.502;13.426;2022-11-22T02:04:01;24.77;;;9.55;;
56927;SDS011;60850;52.502;13.426;2022-11-22T02:06:33;25.75;;;10.60;;
56927;SDS011;60850;52.502;13.426;2022-11-22T02:09:08;23.25;;;8.65;;
56927;SDS011;60850;52.502;13.426;2022-11-22T02:11:37;26.50;;;10.20;;
56927;SDS011;60850;52.502;13.426;2022-11-22T02:14:09;24.10;;;9.88;;
56927;SDS011;60850;52.502;13.426;2022-11-22T02:16:37;25.73;;;10.02;;
56927;SDS011;60850;52.502;13.426;2022-11-22T02:19:08;27.05;;;10.80;;
56927;SDS011;60850;52.502;13.426;2022-11-22T02:21:41;25.77;;;10.80;;
56927;SDS011;60850;52.502;13.426;2022-11-22T02:24:11;26.67;;;11.38;;
56927;SDS011;60850;52.502;13.426;2022-11-22T02:26:46;22.80;;;10.43;;
56927;SDS011;60850;52.502;13.426;2022-11-22T02:29:13;23.20;;;9.82;;
56927;SDS011;60850;52.502;13.426;2022-11-22T02:31:41;28.15;;;11.18;;
56927;SDS011;60850;52.502;13.426;2022-11-22T02:34:10;25.42;;;10.95;;
56927;SDS011;60850;52.502;13.426;2022-11-22T02:36:38;26.83;;;10.90;;
56927;SDS011;60850;52.502;13.426;2022-11-22T02:39:11;23.70;;;10.88;;
56927;SDS011;60850;52.502;13.426;2022-11-22T02:41:41;23.70;;;10.38;;
56927;SDS011;60850;52.502;13.426;2022-11-22T02:44:10;24.33;;;10.55;;
56927;SDS011;60850;52.502;13.426;2022-11-22T02:46:46;29.65;;;11.38;;
56927;SDS011;60850;52.502;13.426;2022-11-22T02:49:17;29.27;;;10.93;;
56927;SDS011;60850;52.502;13.426;2022-11-22T02:51:45;27.95;;;12.07;;
56927;SDS011;60850;52.502;13.426;2022-11-22T02:54:13;31.85;;;12.10;;
56927;SDS011;60850;52.502;13.426;2022-11-22T02:56:40;30.00;;;12.13;;
56927;SDS011;60850;52.502;13.426;2022-11-22T02:59:07;26.33;;;11.60;;
56927;SDS011;60850;52.502;13.426;2022-11-22T03:01:36;27.25;;;11.27;;
56927;SDS011;60850;52.502;13.426;2022-11-22T03:04:03;25.60;;;10.00;;
56927;SDS011;60850;52.502;13.426;2022-11-22T03:06:30;27.23;;;10.95;;
56927;SDS011;60850;52.502;13.426;2022-11-22T03:08:57;26.50;;;11.38;;
56927;SDS011;60850;52.502;13.426;2022-11-22T03:11:24;25.70;;;10.80;;
56927;SDS011;60850;52.502;13.426;2022-11-22T03:13:51;27.83;;;11.15;;
56927;SDS011;60850;52.502;13.426;2022-11-22T03:16:18;25.35;;;9.98;;
56927;SDS011;60850;52.502;13.426;2022-11-22T03:18:46;31.52;;;12.27;;
56927;SDS011;60850;52.502;13.426;2022-11-22T03:21:14;27.55;;;11.27;;
56927;SDS011;60850;52.502;13.426;2022-11-22T03:23:40;28.73;;;11.52;;
56927;SDS011;60850;52.502;13.426;2022-11-22T03:26:08;31.02;;;11.43;;
56927;SDS011;60850;52.502;13.426;2022-11-22T03:28:35;23.13;;;9.55;;
56927;SDS011;60850;52.502;13.426;2022-11-22T03:31:03;33.58;;;12.45;;
56927;SDS011;60850;52.502;13.426;2022-11-22T03:33:31;27.10;;;10.98;;
56927;SDS011;60850;52.502;13.426;2022-11-22T03:36:00;29.67;;;12.05;;
56927;SDS011;60850;52.502;13.426;2022-11-22T03:38:28;25.63;;;10.38;;
56927;SDS011;60850;52.502;13.426;2022-11-22T03:40:55;28.00;;;11.57;;
56927;SDS011;60850;52.502;13.426;2022-11-22T03:43:22;28.38;;;12.43;;
56927;SDS011;60850;52.502;13.426;2022-11-22T03:45:49;26.83;;;11.38;;
56927;SDS011;60850;52.502;13.426;2022-11-22T03:48:16;30.63;;;11.57;;
56927;SDS011;60850;52.502;13.426;2022-11-22T03:50:44;22.90;;;11.35;;
56927;SDS011;60850;52.502;13.426;2022-11-22T03:53:12;29.85;;;11.38;;
56927;SDS011;60850;52.502;13.426;2022-11-22T03:55:39;32.35;;;13.07;;
56927;SDS011;60850;52.502;13.426;2022-11-22T03:58:06;26.67;;;11.82;;
56927;SDS011;60850;52.502;13.426;2022-11-22T04:00:34;28.08;;;10.63;;
56927;SDS011;60850;52.502;13.426;2022-11-22T04:03:01;29.98;;;12.00;;
56927;SDS011;60850;52.502;13.426;2022-11-22T04:05:28;34.38;;;13.35;;
56927;SDS011;60850;52.502;13.426;2022-11-22T04:07:55;29.30;;;10.25;;
56927;SDS011;60850;52.502;13.426;2022-11-22T04:10:24;29.75;;;10.82;;
56927;SDS011;60850;52.502;13.426;2022-11-22T04:12:55;28.58;;;11.48;;
56927;SDS011;60850;52.502;13.426;2022-11-22T04:15:23;20.98;;;9.82;;
56927;SDS011;60850;52.502;13.426;2022-11-22T04:17:49;27.30;;;9.52;;
56927;SDS011;60850;52.502;13.426;2022-11-22T04:20:17;26.85;;;11.63;;
56927;SDS011;60850;52.502;13.426;2022-11-22T04:23:03;32.63;;;11.35;;
56927;SDS011;60850;52.502;13.426;2022-11-22T04:25:34;34.15;;;12.95;;
56927;SDS011;60850;52.502;13.426;2022-11-22T04:28:01;31.52;;;11.90;;
56927;SDS011;60850;52.502;13.426;2022-11-22T04:30:29;27.08;;;11.18;;
56927;SDS011;60850;52.502;13.426;2022-11-22T04:33:11;29.08;;;12.15;;
56927;SDS011;60850;52.502;13.426;2022-11-22T04:35:38;34.78;;;12.70;;
56927;SDS011;60850;52.502;13.426;2022-11-22T04:38:06;31.33;;;11.57;;
56927;SDS011;60850;52.502;13.426;2022-11-22T04:40:34;31.45;;;11.32;;
56927;SDS011;60850;52.502;13.426;2022-11-22T04:43:02;30.27;;;12.00;;
56927;SDS011;60850;52.502;13.426;2022-11-22T04:45:46;32.58;;;12.27;;
56927;SDS011;60850;52.502;13.426;2022-11-22T04:48:13;30.35;;;11.57;;
56927;SDS011;60850;52.502;13.426;2022-11-22T04:50:41;33.72;;;12.55;;
56927;SDS011;60850;52.502;13.426;2022-11-22T04:53:26;31.98;;;12.25;;
56927;SDS011;60850;52.502;13.426;2022-11-22T04:55:55;30.55;;;11.20;;
56927;SDS011;60850;52.502;13.426;2022-11-22T04:58:22;29.83;;;11.20;;
56927;SDS011;60850;52.502;13.426;2022-11-22T05:00:50;29.48;;;12.85;;
56927;SDS011;60850;52.502;13.426;2022-11-22T05:03:17;38.13;;;12.68;;
56927;SDS011;60850;52.502;13.426;2022-11-22T05:05:44;35.08;;;11.85;;
56927;SDS011;60850;52.502;13.426;2022-11-22T05:08:11;33.15;;;13.48;;
56927;SDS011;60850;52.502;13.426;2022-11-22T05:10:38;33.00;;;12.95;;
56927;SDS011;60850;52.502;13.426;2022-11-22T05:13:29;26.80;;;10.85;;
56927;SDS011;60850;52.502;13.426;2022-11-22T05:15:58;30.60;;;11.40;;
56927;SDS011;60850;52.502;13.426;2022-11-22T05:18:26;35.63;;;14.65;;
56927;SDS011;60850;52.502;13.426;2022-11-22T05:20:54;32.80;;;11.35;;
56927;SDS011;60850;52.502;13.426;2022-11-22T05:23:22;34.85;;;13.48;;
56927;SDS011;60850;52.502;13.426;2022-11-22T05:26:07;33.40;;;12.10;;
56927;SDS011;60850;52.502;13.426;2022-11-22T05:28:37;32.92;;;12.90;;
56927;SDS011;60850;52.502;13.426;2022-11-22T05:31:05;36.40;;;12.75;;
56927;SDS011;60850;52.502;13.426;2022-11-22T05:33:34;36.35;;;13.55;;
56927;SDS011;60850;52.502;13.426;2022-11-22T05:36:02;30.40;;;12.13;;
56927;SDS011;60850;52.502;13.426;2022-11-22T05:38:29;35.17;;;11.75;;
56927;SDS011;60850;52.502;13.426;2022-11-22T05:40:56;38.70;;;13.88;;
56927;SDS011;60850;52.502;13.426;2022-11-22T05:43:23;36.10;;;13.20;;
56927;SDS011;60850;52.502;13.426;2022-11-22T05:45:52;34.78;;;11.88;;
56927;SDS011;60850;52.502;13.426;2022-11-22T05:48:18;37.05;;;12.60;;
56927;SDS011;60850;52.502;13.426;2022-11-22T05:50:46;37.05;;;12.50;;
56927;SDS011;60850;52.502;13.426;2022-11-22T05:53:12;33.85;;;11.10;;
56927;SDS011;60850;52.502;13.426;2022-11-22T05:55:40;31.80;;;12.52;;
56927;SDS011;60850;52.502;13.426;2022-11-22T05:58:06;38.97;;;14.00;;
56927;SDS011;60850;52.502;13.426;2022-11-22T06:00:33;36.38;;;13.70;;
56927;SDS011;60850;52.502;13.426;2022-11-22T06:03:02;36.20;;;12.80;;
56927;SDS011;60850;52.502;13.426;2022-11-22T06:05:30;33.75;;;12.07;;
56927;SDS011;60850;52.502;13.426;2022-11-22T06:07:57;38.90;;;13.15;;
56927;SDS011;60850;52.502;13.426;2022-11-22T06:10:25;31.52;;;11.27;;
56927;SDS011;60850;52.502;13.426;2022-11-22T06:12:52;30.33;;;10.90;;
56927;SDS011;60850;52.502;13.426;2022-11-22T06:15:20;36.03;;;12.52;;
56927;SDS011;60850;52.502;13.426;2022-11-22T06:17:47;31.88;;;10.75;;
56927;SDS011;60850;52.502;13.426;2022-11-22T06:20:16;39.47;;;11.73;;
56927;SDS011;60850;52.502;13.426;2022-11-22T06:22:43;32.30;;;12.68;;
56927;SDS011;60850;52.502;13.426;2022-11-22T06:25:10;29.75;;;12.05;;
56927;SDS011;60850;52.502;13.426;2022-11-22T06:27:37;35.47;;;13.05;;
56927;SDS011;60850;52.502;13.426;2022-11-22T06:30:04;38.10;;;12.38;;
56927;SDS011;60850;52.502;13.426;2022-11-22T06:32:32;34.75;;;11.43;;
56927;SDS011;60850;52.502;13.426;2022-11-22T06:35:00;40.78;;;13.10;;
56927;SDS011;60850;52.502;13.426;2022-11-22T06:37:29;32.88;;;13.25;;
56927;SDS011;60850;52.502;13.426;2022-11-22T06:39:56;29.60;;;12.02;;
56927;SDS011;60850;52.502;13.426;2022-11-22T06:42:23;32.50;;;11.90;;
56927;SDS011;60850;52.502;13.426;2022-11-22T06:44:50;41.65;;;14.27;;
56927;SDS011;60850;52.502;13.426;2022-11-22T06:47:17;23.73;;;10.05;;
56927;SDS011;60850;52.502;13.426;2022-11-22T06:49:44;39.42;;;13.77;;
56927;SDS011;60850;52.502;13.426;2022-11-22T06:52:11;31.60;;;12.18;;
56927;SDS011;60850;52.502;13.426;2022-11-22T06:54:39;36.08;;;12.75;;
56927;SDS011;60850;52.502;13.426;2022-11-22T06:57:06;36.03;;;13.55;;
56927;SDS011;60850;52.502;13.426;2022-11-22T06:59:33;36.70;;;14.05;;
56927;SDS011;60850;52.502;13.426;2022-11-22T07:02:01;32.50;;;12.95;;
56927;SDS011;60850;52.502;13.426;2022-11-22T07:04:28;31.67;;;12.82;;
56927;SDS011;60850;52.502;13.426;2022-11-22T07:06:55;30.58;;;11.70;;
56927;SDS011;60850;52.502;13.426;2022-11-22T07:09:22;32.53;;;11.70;;
56927;SDS011;60850;52.502;13.426;2022-11-22T07:11:51;29.27;;;11.60;;
56927;SDS011;60850;52.502;13.426;2022-11-22T07:14:18;31.02;;;11.65;;
56927;SDS011;60850;52.502;13.426;2022-11-22T07:16:45;35.35;;;12.77;;
56927;SDS011;60850;52.502;13.426;2022-11-22T07:19:12;29.67;;;10.98;;
56927;SDS011;60850;52.502;13.426;2022-11-22T07:21:39;26.65;;;9.82;;
56927;SDS011;60850;52.502;13.426;2022-11-22T07:24:06;30.48;;;10.70;;
56927;SDS011;60850;52.502;13.426;2022-11-22T07:26:33;31.88;;;11.43;;
56927;SDS011;60850;52.502;13.426;2022-11-22T07:29:02;29.35;;;12.63;;
56927;SDS011;60850;52.502;13.426;2022-11-22T07:31:29;32.08;;;12.75;;
56927;SDS011;60850;52.502;13.426;2022-11-22T07:33:56;36.13;;;13.40;;
56927;SDS011;60850;52.502;13.426;2022-11-22T07:36:23;33.40;;;11.88;;
56927;SDS011;60850;52.502;13.426;2022-11-22T07:38:53;32.22;;;12.82;;
56927;SDS011;60850;52.502;13.426;2022-11-22T07:41:20;33.08;;;12.88;;
56927;SDS011;60850;52.502;13.426;2022-11-22T07:43:48;33.55;;;11.60;;
56927;SDS011;60850;52.502;13.426;2022-11-22T07:46:19;35.97;;;13.13;;
56927;SDS011;60850;52.502;13.426;2022-11-22T07:48:48;35.63;;;13.87;;
56927;SDS011;60850;52.502;13.426;2022-11-22T07:51:15;34.60;;;13.80;;
56927;SDS011;60850;52.502;13.426;2022-11-22T07:53:43;26.90;;;12.00;;
56927;SDS011;60850;52.502;13.426;2022-11-22T07:56:10;37.67;;;13.18;;
56927;SDS011;60850;52.502;13.426;2022-11-22T07:58:37;31.92;;;12.55;;
56927;SDS011;60850;52.502;13.426;2022-11-22T08:01:05;37.00;;;12.65;;
56927;SDS011;60850;52.502;13.426;2022-11-22T08:03:34;35.40;;;13.63;;
56927;SDS011;60850;52.502;13.426;2022-11-22T08:06:01;28.90;;;11.05;;
56927;SDS011;60850;52.502;13.426;2022-11-22T08:08:30;36.08;;;13.35;;
56927;SDS011;60850;52.502;13.426;2022-11-22T08:10:57;35.55;;;12.50;;
56927;SDS011;60850;52.502;13.426;2022-11-22T08:13:24;34.72;;;13.13;;
56927;SDS011;60850;52.502;13.426;2022-11-22T08:15:51;35.60;;;12.02;;
56927;SDS011;60850;52.502;13.426;2022-11-22T08:18:18;29.77;;;12.18;;
56927;SDS011;60850;52.502;13.426;2022-11-22T08:20:47;39.00;;;14.00;;
56927;SDS011;60850;52.502;13.426;2022-11-22T08:23:14;36.97;;;12.55;;
56927;SDS011;60850;52.502;13.426;2022-11-22T08:25:41;32.03;;;11.90;;
56927;SDS011;60850;52.502;13.426;2022-11-22T08:28:08;34.92;;;14.02;;
56927;SDS011;60850;52.502;13.426;2022-11-22T08:30:35;35.97;;;12.13;;
56927;SDS011;60850;52.502;13.426;2022-11-22T08:33:02;31.00;;;12.82;;
56927;SDS011;60850;52.502;13.426;2022-11-22T08:35:29;35.20;;;13.60;;
56927;SDS011;60850;52.502;13.426;2022-11-22T08:37:58;35.40;;;12.93;;
56927;SDS011;60850;52.502;13.426;2022-11-22T08:40:25;34.90;;;13.35;;
56927;SDS011;60850;52.502;13.426;2022-11-22T08:42:52;40.25;;;13.38;;
56927;SDS011;60850;52.502;13.426;2022-11-22T08:45:25;37.97;;;14.75;;
56927;SDS011;60850;52.502;13.426;2022-11-22T08:47:52;46.65;;;15.45;;
56927;SDS011;60850;52.502;13.426;2022-11-22T08:50:19;41.85;;;14.85;;
56927;SDS011;60850;52.502;13.426;2022-11-22T08:52:46;45.17;;;15.82;;
56927;SDS011;60850;52.502;13.426;2022-11-22T08:55:14;33.53;;;13.95;;
56927;SDS011;60850;52.502;13.426;2022-11-22T08:57:41;40.28;;;13.88;;
56927;SDS011;60850;52.502;13.426;2022-11-22T09:00:09;41.95;;;14.70;;
56927;SDS011;60850;52.502;13.426;2022-11-22T09:02:36;42.58;;;14.32;;
56927;SDS011;60850;52.502;13.426;2022-11-22T09:05:04;44.45;;;15.45;;
56927;SDS011;60850;52.502;13.426;2022-11-22T09:07:31;48.85;;;16.65;;
56927;SDS011;60850;52.502;13.426;2022-11-22T09:09:58;40.35;;;15.18;;
56927;SDS011;60850;52.502;13.426;2022-11-22T09:12:27;44.95;;;14.75;;
56927;SDS011;60850;52.502;13.426;2022-11-22T09:14:53;42.65;;;15.50;;
56927;SDS011;60850;52.502;13.426;2022-11-22T09:17:21;42.33;;;15.35;;
56927;SDS011;60850;52.502;13.426;2022-11-22T09:19:48;39.70;;;14.80;;
56927;SDS011;60850;52.502;13.426;2022-11-22T09:22:15;44.90;;;15.18;;
56927;SDS011;60850;52.502;13.426;2022-11-22T09:24:42;38.20;;;13.60;;
56927;SDS011;60850;52.502;13.426;2022-11-22T09:27:09;45.25;;;15.35;;
56927;SDS011;60850;52.502;13.426;2022-11-22T09:29:37;43.17;;;15.80;;
56927;SDS011;60850;52.502;13.426;2022-11-22T09:32:07;35.55;;;10.77;;
56927;SDS011;60850;52.502;13.426;2022-11-22T09:34:34;39.42;;;14.55;;
56927;SDS011;60850;52.502;13.426;2022-11-22T09:37:02;40.45;;;15.07;;
56927;SDS011;60850;52.502;13.426;2022-11-22T09:39:29;37.72;;;13.98;;
56927;SDS011;60850;52.502;13.426;2022-11-22T09:45:15;37.95;;;13.73;;
56927;SDS011;60850;52.502;13.426;2022-11-22T09:47:56;46.90;;;15.55;;
56927;SDS011;60850;52.502;13.426;2022-11-22T09:50:32;42.03;;;15.20;;
56927;SDS011;60850;52.502;13.426;2022-11-22T09:53:11;40.65;;;14.30;;
56927;SDS011;60850;52.502;13.426;2022-11-22T09:55:44;41.00;;;15.48;;
56927;SDS011;60850;52.502;13.426;2022-11-22T09:58:18;42.38;;;14.55;;
56927;SDS011;60850;52.502;13.426;2022-11-22T10:00:55;39.47;;;14.23;;
56927;SDS011;60850;52.502;13.426;2022-11-22T10:03:28;38.92;;;13.32;;
56927;SDS011;60850;52.502;13.426;2022-11-22T10:06:07;43.75;;;14.68;;
56927;SDS011;60850;52.502;13.426;2022-11-22T10:08:40;45.75;;;16.05;;
56927;SDS011;60850;52.502;13.426;2022-11-22T10:11:14;42.80;;;15.25;;
56927;SDS011;60850;52.502;13.426;2022-11-22T10:13:50;47.72;;;15.75;;
56927;SDS011;60850;52.502;13.426;2022-11-22T10:16:24;40.92;;;14.65;;
56927;SDS011;60850;52.502;13.426;2022-11-22T10:18:59;47.00;;;14.45;;
56927;SDS011;60850;52.502;13.426;2022-11-22T10:21:30;43.22;;;15.23;;
56927;SDS011;60850;52.502;13.426;2022-11-22T10:23:58;39.70;;;14.95;;
56927;SDS011;60850;52.502;13.426;2022-11-22T10:26:25;42.33;;;14.27;;
56927;SDS011;60850;52.502;13.426;2022-11-22T10:29:00;41.92;;;14.85;;
56927;SDS011;60850;52.502;13.426;2022-11-22T10:31:37;45.88;;;16.48;;
56927;SDS011;60850;52.502;13.426;2022-11-22T10:34:14;40.05;;;14.98;;
56927;SDS011;60850;52.502;13.426;2022-11-22T10:36:52;43.88;;;15.02;;
56927;SDS011;60850;52.502;13.426;2022-11-22T10:39:30;45.17;;;15.38;;
56927;SDS011;60850;52.502;13.426;2022-11-22T10:42:15;33.80;;;14.68;;
56927;SDS011;60850;52.502;13.426;2022-11-22T10:44:53;39.25;;;14.30;;
56927;SDS011;60850;52.502;13.426;2022-11-22T10:47:30;43.45;;;15.23;;
56927;SDS011;60850;52.502;13.426;2022-11-22T10:50:11;43.25;;;14.13;;
56927;SDS011;60850;52.502;13.426;2022-11-22T10:52:44;40.07;;;14.23;;
56927;SDS011;60850;52.502;13.426;2022-11-22T10:55:24;43.05;;;15.45;;
56927;SDS011;60850;52.502;13.426;2022-11-22T10:58:05;43.38;;;16.50;;
56927;SDS011;60850;52.502;13.426;2022-11-22T11:00:38;38.42;;;14.35;;
56927;SDS011;60850;52.502;13.426;2022-11-22T11:03:15;39.47;;;13.73;;
56927;SDS011;60850;52.502;13.426;2022-11-22T11:05:52;47.40;;;15.32;;
56927;SDS011;60850;52.502;13.426;2022-11-22T11:08:24;47.33;;;14.93;;
56927;SDS011;60850;52.502;13.426;2022-11-22T11:10:55;43.30;;;15.45;;
56927;SDS011;60850;52.502;13.426;2022-11-22T11:13:24;45.88;;;16.95;;
56927;SDS011;60850;52.502;13.426;2022-11-22T11:15:56;45.38;;;15.18;;
56927;SDS011;60850;52.502;13.426;2022-11-22T11:18:27;52.67;;;17.77;;
56927;SDS011;60850;52.502;13.426;2022-11-22T11:21:00;43.17;;;15.20;;
56927;SDS011;60850;52.502;13.426;2022-11-22T11:23:27;40.13;;;14.57;;
56927;SDS011;60850;52.502;13.426;2022-11-22T11:25:54;48.85;;;16.20;;
56927;SDS011;60850;52.502;13.426;2022-11-22T11:28:22;42.83;;;15.23;;
56927;SDS011;60850;52.502;13.426;2022-11-22T11:30:55;45.67;;;15.63;;
56927;SDS011;60850;52.502;13.426;2022-11-22T11:33:27;42.03;;;16.30;;
56927;SDS011;60850;52.502;13.426;2022-11-22T11:35:55;42.22;;;16.58;;
56927;SDS011;60850;52.502;13.426;2022-11-22T11:38:32;44.30;;;16.50;;
56927;SDS011;60850;52.502;13.426;2022-11-22T11:43:54;39.30;;;15.32;;
56927;SDS011;60850;52.502;13.426;2022-11-22T11:46:23;42.13;;;15.45;;
56927;SDS011;60850;52.502;13.426;2022-11-22T11:48:53;43.38;;;13.93;;
56927;SDS011;60850;52.502;13.426;2022-11-22T11:51:24;38.35;;;14.32;;
56927;SDS011;60850;52.502;13.426;2022-11-22T11:53:59;39.78;;;16.60;;
56927;SDS011;60850;52.502;13.426;2022-11-22T11:56:32;40.97;;;14.85;;
56927;SDS011;60850;52.502;13.426;2022-11-22T11:59:06;42.45;;;14.85;;
56927;SDS011;60850;52.502;13.426;2022-11-22T12:01:38;37.22;;;14.57;;
56927;SDS011;60850;52.502;13.426;2022-11-22T12:04:22;44.13;;;15.65;;
56927;SDS011;60850;52.502;13.426;2022-11-22T12:06:53;38.70;;;14.48;;
56927;SDS011;60850;52.502;13.426;2022-11-22T12:09:29;42.08;;;14.55;;
56927;SDS011;60850;52.502;13.426;2022-11-22T12:12:01;39.05;;;15.00;;
56927;SDS011;60850;52.502;13.426;2022-11-22T12:14:34;43.05;;;14.00;;
56927;SDS011;60850;52.502;13.426;2022-11-22T12:17:06;39.25;;;14.77;;
56927;SDS011;60850;52.502;13.426;2022-11-22T12:19:49;40.10;;;15.05;;
56927;SDS011;60850;52.502;13.426;2022-11-22T12:22:27;37.00;;;13.80;;
56927;SDS011;60850;52.502;13.426;2022-11-22T12:25:06;42.53;;;14.55;;
56927;SDS011;60850;52.502;13.426;2022-11-22T12:27:45;37.20;;;14.65;;
56927;SDS011;60850;52.502;13.426;2022-11-22T12:30:13;44.40;;;16.73;;
56927;SDS011;60850;52.502;13.426;2022-11-22T12:32:40;45.58;;;16.85;;
56927;SDS011;60850;52.502;13.426;2022-11-22T12:35:11;45.08;;;16.92;;
56927;SDS011;60850;52.502;13.426;2022-11-22T12:37:42;39.20;;;15.20;;
56927;SDS011;60850;52.502;13.426;2022-11-22T12:40:15;41.15;;;15.57;;
56927;SDS011;60850;52.502;13.426;2022-11-22T12:42:46;41.85;;;14.82;;
56927;SDS011;60850;52.502;13.426;2022-11-22T12:45:16;36.58;;;14.45;;
56927;SDS011;60850;52.502;13.426;2022-11-22T12:47:49;44.95;;;15.32;;
56927;SDS011;60850;52.502;13.426;2022-11-22T12:50:23;46.70;;;15.43;;
56927;SDS011;60850;52.502;13.426;2022-11-22T12:52:56;44.70;;;15.25;;
56927;SDS011;60850;52.502;13.426;2022-11-22T12:55:29;42.43;;;14.90;;
56927;SDS011;60850;52.502;13.426;2022-11-22T12:58:06;33.67;;;12.32;;
56927;SDS011;60850;52.502;13.426;2022-11-22T13:00:41;45.63;;;16.92;;
56927;SDS011;60850;52.502;13.426;2022-11-22T13:03:14;45.58;;;16.17;;
56927;SDS011;60850;52.502;13.426;2022-11-22T13:05:48;45.30;;;15.85;;
56927;SDS011;60850;52.502;13.426;2022-11-22T13:08:22;45.57;;;15.97;;
56927;SDS011;60850;52.502;13.426;2022-11-22T13:10:55;44.60;;;15.10;;
56927;SDS011;60850;52.502;13.426;2022-11-22T13:13:30;41.72;;;15.20;;
56927;SDS011;60850;52.502;13.426;2022-11-22T13:16:02;38.60;;;14.48;;
56927;SDS011;60850;52.502;13.426;2022-11-22T13:18:35;39.38;;;13.68;;
56927;SDS011;60850;52.502;13.426;2022-11-22T13:21:07;40.05;;;15.70;;
56927;SDS011;60850;52.502;13.426;2022-11-22T13:23:47;43.60;;;16.02;;
56927;SDS011;60850;52.502;13.426;2022-11-22T13:26:25;45.60;;;14.73;;
56927;SDS011;60850;52.502;13.426;2022-11-22T13:29:00;35.95;;;14.40;;
56927;SDS011;60850;52.502;13.426;2022-11-22T13:31:38;44.80;;;16.50;;
56927;SDS011;60850;52.502;13.426;2022-11-22T13:34:29;41.92;;;14.75;;
56927;SDS011;60850;52.502;13.426;2022-11-22T13:37:03;43.20;;;15.40;;
56927;SDS011;60850;52.502;13.426;2022-11-22T13:39:33;43.75;;;15.10;;
56927;SDS011;60850;52.502;13.426;2022-11-22T13:42:09;34.33;;;13.50;;
56927;SDS011;60850;52.502;13.426;2022-11-22T13:44:49;43.25;;;15.73;;
56927;SDS011;60850;52.502;13.426;2022-11-22T13:47:33;39.95;;;14.75;;
56927;SDS011;60850;52.502;13.426;2022-11-22T13:53:23;38.58;;;14.60;;
56927;SDS011;60850;52.502;13.426;2022-11-22T13:55:53;40.78;;;15.43;;
56927;SDS011;60850;52.502;13.426;2022-11-22T14:10:02;45.17;;;16.15;;
56927;SDS011;60850;52.502;13.426;2022-11-22T14:12:35;37.53;;;15.00;;
56927;SDS011;60850;52.502;13.426;2022-11-22T14:15:19;45.97;;;16.45;;
56927;SDS011;60850;52.502;13.426;2022-11-22T14:17:55;34.42;;;14.63;;
56927;SDS011;60850;52.502;13.426;2022-11-22T14:20:38;42.67;;;15.30;;
56927;SDS011;60850;52.502;13.426;2022-11-22T14:23:13;46.10;;;17.20;;
56927;SDS011;60850;52.502;13.426;2022-11-22T14:25:59;40.83;;;16.02;;
56927;SDS011;60850;52.502;13.426;2022-11-22T14:31:37;39.80;;;15.93;;
56927;SDS011;60850;52.502;13.426;2022-11-22T14:34:19;36.90;;;13.77;;
56927;SDS011;60850;52.502;13.426;2022-11-22T14:40:02;43.00;;;16.63;;
56927;SDS011;60850;52.502;13.426;2022-11-22T14:42:49;45.35;;;16.90;;
56927;SDS011;60850;52.502;13.426;2022-11-22T14:45:20;41.42;;;15.80;;
56927;SDS011;60850;52.502;13.426;2022-11-22T14:47:55;41.22;;;16.17;;
56927;SDS011;60850;52.502;13.426;2022-11-22T14:50:27;43.08;;;15.95;;
56927;SDS011;60850;52.502;13.426;2022-11-22T14:52:58;43.47;;;15.27;;
56927;SDS011;60850;52.502;13.426;2022-11-22T14:55:32;46.03;;;17.00;;